Terminal Aerodrome Forecast
Issued by NWS

Home | Current Version | Previous Version | Text Only | Print | Product List | Glossary On
Versions: 1 2 3 4 5 6 7 8 9 10 11 12 13 14 15 16 17 18 19 20 21 22 23
000
FTUS44 KBMX 282347 CCA
TAFANB
TAF COR
KANB 282347Z 2900/2924 10006KT 5SM SHRA VCTS SCT025 BKN035CB
     FM290400 10005KT P6SM SCT015 BKN040
     FM290900 00000KT 5SM BR BKN010
     FM291500 16004KT P6SM BKN250
     FM291800 16005KT P6SM VCTS BKN050CB
     FM292100 14007KT 4SM SHRA VCTS BKN025CB OVC050=

USA.gov is the U.S. government's official web portal to all federal, state and local government web resources and services.